createdAt,value
2018-02-08T00:01:03.126Z,29.05
2018-02-08T00:03:31.103Z,30.10
2018-02-08T00:05:58.792Z,30.52
2018-02-08T00:08:26.568Z,30.45
2018-02-08T00:10:54.275Z,30.62
2018-02-08T00:13:21.954Z,30.45
2018-02-08T00:15:49.911Z,29.40
2018-02-08T00:18:17.588Z,31.60
2018-02-08T00:20:45.252Z,30.25
2018-02-08T00:23:12.948Z,28.62
2018-02-08T00:25:41.007Z,30.48
2018-02-08T00:28:08.699Z,30.15
2018-02-08T00:30:36.378Z,29.50
2018-02-08T00:33:04.278Z,27.08
2018-02-08T00:35:31.951Z,29.87
2018-02-08T00:37:59.634Z,29.63
2018-02-08T00:40:27.356Z,29.25
2018-02-08T00:42:55.019Z,30.35
2018-02-08T00:45:22.722Z,29.83
2018-02-08T00:47:50.400Z,30.83
2018-02-08T00:50:18.304Z,29.77
2018-02-08T00:52:45.973Z,29.30
2018-02-08T00:55:13.671Z,30.70
2018-02-08T00:57:41.371Z,30.23
2018-02-08T01:00:09.075Z,29.35
2018-02-08T01:02:36.773Z,32.08
2018-02-08T01:05:04.463Z,32.45
2018-02-08T01:07:32.311Z,29.50
2018-02-08T01:09:59.983Z,30.45
2018-02-08T01:12:27.659Z,29.40
2018-02-08T01:14:55.355Z,29.80
2018-02-08T01:17:23.033Z,31.90
2018-02-08T01:19:50.722Z,32.97
2018-02-08T01:22:18.385Z,33.50
2018-02-08T01:24:46.190Z,32.50
2018-02-08T01:27:13.858Z,31.52
2018-02-08T01:29:41.520Z,31.77
2018-02-08T01:32:09.205Z,31.85
2018-02-08T01:34:36.879Z,31.50
2018-02-08T01:37:04.572Z,31.58
2018-02-08T01:39:32.247Z,30.85
2018-02-08T01:42:00.248Z,33.38
2018-02-08T01:44:27.914Z,31.42
2018-02-08T01:46:55.583Z,31.95
2018-02-08T01:49:34.921Z,31.67
2018-02-08T01:52:02.603Z,31.00
2018-02-08T01:54:30.322Z,31.40
2018-02-08T01:56:58.011Z,32.97
2018-02-08T01:59:25.724Z,30.27
2018-02-08T02:01:53.409Z,31.40
2018-02-08T02:04:21.089Z,31.15
2018-02-08T02:06:48.786Z,30.48
2018-02-08T02:09:16.454Z,33.78
2018-02-08T02:11:44.148Z,31.40
2018-02-08T02:14:11.834Z,33.00
2018-02-08T02:16:39.562Z,32.30
2018-02-08T02:19:07.240Z,34.65
2018-02-08T02:21:34.897Z,33.15
2018-02-08T02:24:02.665Z,32.20
2018-02-08T02:26:30.339Z,32.17
2018-02-08T02:28:58.031Z,31.75
2018-02-08T02:31:25.713Z,32.72
2018-02-08T02:33:53.621Z,30.27
2018-02-08T02:36:21.294Z,34.33
2018-02-08T02:38:48.992Z,33.78
2018-02-08T02:41:16.687Z,30.23
2018-02-08T02:43:44.379Z,33.20
2018-02-08T02:46:12.092Z,29.12
2018-02-08T02:48:39.776Z,31.62
2018-02-08T02:51:07.483Z,32.35
2018-02-08T02:53:35.156Z,30.88
2018-02-08T02:56:02.825Z,33.17
2018-02-08T02:58:30.514Z,29.55
2018-02-08T03:00:58.179Z,34.47
2018-02-08T03:03:25.887Z,29.30
2018-02-08T03:05:53.559Z,31.75
2018-02-08T03:08:21.413Z,30.70
2018-02-08T03:10:49.087Z,31.95
2018-02-08T03:13:16.759Z,31.75
2018-02-08T03:15:44.463Z,32.28
2018-02-08T03:18:12.147Z,31.67
2018-02-08T03:20:39.836Z,32.63
2018-02-08T03:23:07.504Z,32.55
2018-02-08T03:25:35.345Z,35.83
2018-02-08T03:28:03.021Z,31.95
2018-02-08T03:30:31.538Z,33.42
2018-02-08T03:32:59.232Z,31.02
2018-02-08T03:35:26.906Z,33.08
2018-02-08T03:37:54.596Z,33.17
2018-02-08T03:40:22.288Z,28.77
2018-02-08T03:42:50.323Z,30.58
2018-02-08T03:45:18.006Z,33.05
2018-02-08T03:47:45.675Z,31.98
2018-02-08T03:50:13.367Z,31.17
2018-02-08T03:52:41.052Z,33.00
2018-02-08T03:55:08.745Z,32.50
2018-02-08T03:57:36.407Z,33.45
2018-02-08T04:00:04.375Z,33.13
2018-02-08T04:02:32.044Z,31.42
2018-02-08T04:04:59.711Z,29.92
2018-02-08T04:07:27.404Z,32.30
2018-02-08T04:09:55.067Z,33.10
2018-02-08T04:12:22.762Z,33.40
2018-02-08T04:14:50.450Z,32.55
2018-02-08T04:17:18.183Z,34.08
2018-02-08T04:19:45.853Z,33.03
2018-02-08T04:22:13.529Z,32.50
2018-02-08T04:24:41.300Z,32.00
2018-02-08T04:27:08.985Z,32.92
2018-02-08T04:29:37.022Z,33.38
2018-02-08T04:32:04.719Z,29.20
2018-02-08T04:34:32.383Z,30.92
2018-02-08T04:37:00.092Z,31.02
2018-02-08T04:39:39.279Z,31.00
2018-02-08T04:42:18.704Z,31.73
2018-02-08T04:44:58.105Z,30.48
2018-02-08T04:47:34.527Z,32.55
2018-02-08T04:50:02.197Z,29.48
2018-02-08T04:52:29.895Z,34.00
2018-02-08T04:54:57.573Z,32.70
2018-02-08T04:57:25.280Z,32.47
2018-02-08T04:59:52.935Z,32.83
2018-02-08T05:02:20.610Z,31.25
2018-02-08T05:04:48.300Z,31.17
2018-02-08T05:07:15.996Z,31.05
2018-02-08T05:09:43.679Z,30.42
2018-02-08T05:12:11.359Z,34.03
2018-02-08T05:14:39.043Z,31.75
2018-02-08T05:17:06.733Z,32.42
2018-02-08T05:19:34.406Z,31.95
2018-02-08T05:22:02.209Z,30.42
2018-02-08T05:24:29.875Z,32.05
2018-02-08T05:26:57.537Z,30.90
2018-02-08T05:29:25.250Z,32.47
2018-02-08T05:31:52.928Z,35.20
2018-02-08T05:34:20.643Z,31.50
2018-02-08T05:36:48.319Z,29.98
2018-02-08T05:39:15.996Z,29.50
2018-02-08T05:41:43.693Z,34.65
2018-02-08T05:44:11.370Z,32.15
2018-02-08T05:46:39.064Z,29.33
2018-02-08T05:49:06.732Z,33.47
2018-02-08T05:51:34.820Z,32.67
2018-02-08T05:54:02.491Z,31.85
2018-02-08T05:56:30.321Z,33.40
2018-02-08T05:58:58.028Z,34.53
2018-02-08T06:01:25.707Z,32.45
2018-02-08T06:03:53.395Z,32.13
2018-02-08T06:06:21.052Z,29.90
2018-02-08T06:08:48.967Z,31.42
2018-02-08T06:11:16.638Z,30.40
2018-02-08T06:13:44.328Z,30.60
2018-02-08T06:16:12.013Z,30.70
2018-02-08T06:18:39.680Z,31.92
2018-02-08T06:21:07.368Z,33.33
2018-02-08T06:23:35.037Z,31.27
2018-02-08T06:26:02.746Z,32.58
2018-02-08T06:28:30.413Z,30.15
2018-02-08T06:30:58.080Z,32.15
2018-02-08T06:33:25.795Z,27.60
2018-02-08T06:35:53.488Z,31.85
2018-02-08T06:38:21.193Z,27.42
2018-02-08T06:40:48.861Z,29.98
2018-02-08T06:43:16.849Z,33.97
2018-02-08T06:45:44.523Z,32.00
2018-02-08T06:48:12.198Z,32.85
2018-02-08T06:50:39.887Z,33.40
2018-02-08T06:53:07.581Z,32.58
2018-02-08T06:55:35.274Z,31.15
2018-02-08T06:58:04.421Z,28.52
2018-02-08T07:00:32.314Z,30.85
2018-02-08T07:03:00.059Z,32.42
2018-02-08T07:05:27.743Z,31.70
2018-02-08T07:07:55.441Z,32.63
2018-02-08T07:10:23.111Z,33.35
2018-02-08T07:12:50.836Z,31.92
2018-02-08T07:15:18.515Z,33.25
2018-02-08T07:17:46.231Z,30.67
2018-02-08T07:20:14.039Z,31.85
2018-02-08T07:22:41.721Z,31.15
2018-02-08T07:25:09.409Z,31.33
2018-02-08T07:27:37.075Z,32.85
2018-02-08T07:30:04.781Z,32.83
2018-02-08T07:32:32.465Z,31.65
2018-02-08T07:35:00.423Z,34.13
2018-02-08T07:37:28.108Z,32.28
2018-02-08T07:39:55.779Z,31.75
2018-02-08T07:42:23.484Z,30.05
2018-02-08T07:44:51.158Z,31.73
2018-02-08T07:47:19.047Z,28.48
2018-02-08T07:49:46.716Z,31.02
2018-02-08T07:52:14.537Z,33.78
2018-02-08T07:54:42.201Z,31.52
2018-02-08T07:57:09.872Z,33.63
2018-02-08T07:59:37.588Z,32.20
2018-02-08T08:02:05.269Z,34.10
2018-02-08T08:04:32.963Z,30.12
2018-02-08T08:07:00.630Z,34.33
2018-02-08T08:09:28.705Z,32.25
2018-02-08T08:11:56.374Z,31.87
2018-02-08T08:14:24.075Z,32.38
2018-02-08T08:16:51.776Z,32.85
2018-02-08T08:19:19.438Z,30.55
2018-02-08T08:21:47.148Z,34.63
2018-02-08T08:24:14.840Z,32.17
2018-02-08T08:26:42.695Z,34.35
2018-02-08T08:29:10.375Z,35.88
2018-02-08T08:31:38.046Z,36.15
2018-02-08T08:34:05.743Z,34.30
2018-02-08T08:36:33.413Z,34.10
2018-02-08T08:39:01.131Z,35.83
2018-02-08T08:41:28.821Z,33.80
2018-02-08T08:43:56.713Z,34.55
2018-02-08T08:46:24.409Z,34.65
2018-02-08T08:48:52.159Z,34.47
2018-02-08T08:51:19.864Z,33.33
2018-02-08T08:53:47.541Z,36.75
2018-02-08T08:56:15.231Z,32.70
2018-02-08T08:58:42.924Z,34.85
2018-02-08T09:01:10.631Z,34.75
2018-02-08T09:03:38.319Z,35.75
2018-02-08T09:06:05.988Z,33.70
2018-02-08T09:08:33.684Z,38.15
2018-02-08T09:11:01.371Z,33.60
2018-02-08T09:13:29.247Z,36.83
2018-02-08T09:15:56.923Z,36.30
2018-02-08T09:18:24.604Z,36.35
2018-02-08T09:20:52.287Z,32.20
2018-02-08T09:23:20.198Z,33.78
2018-02-08T09:25:48.094Z,32.95
2018-02-08T09:28:15.759Z,34.20
2018-02-08T09:30:43.439Z,31.70
2018-02-08T09:33:11.132Z,30.30
2018-02-08T09:35:38.806Z,35.00
2018-02-08T09:38:06.552Z,34.40
2018-02-08T09:40:34.209Z,33.75
2018-02-08T09:43:01.911Z,33.03
2018-02-08T09:45:29.575Z,32.15
2018-02-08T09:47:57.260Z,32.75
2018-02-08T09:50:24.948Z,32.75
2018-02-08T09:52:52.990Z,32.60
2018-02-08T09:55:20.674Z,32.47
2018-02-08T09:57:48.338Z,33.85
2018-02-08T10:00:16.073Z,32.92
2018-02-08T10:02:43.834Z,36.45
2018-02-08T10:05:11.511Z,33.80
2018-02-08T10:07:39.224Z,30.52
2018-02-08T10:10:06.904Z,33.78
2018-02-08T10:12:34.625Z,33.70
2018-02-08T10:15:02.300Z,33.03
2018-02-08T10:17:30.716Z,33.35
2018-02-08T10:19:58.397Z,33.53
2018-02-08T10:22:26.374Z,34.47
2018-02-08T10:24:54.073Z,33.38
2018-02-08T10:27:21.741Z,32.50
2018-02-08T10:29:49.434Z,33.20
2018-02-08T10:32:17.129Z,34.47
2018-02-08T10:34:44.939Z,33.58
2018-02-08T10:37:12.638Z,33.20
2018-02-08T10:39:40.312Z,32.88
2018-02-08T10:42:08.016Z,32.90
2018-02-08T10:44:35.841Z,31.83
2018-02-08T10:47:03.531Z,35.13
2018-02-08T10:49:31.212Z,35.47
2018-02-08T10:51:59.453Z,36.45
2018-02-08T10:54:27.484Z,35.13
2018-02-08T10:56:55.778Z,33.05
2018-02-08T10:59:23.468Z,33.47
2018-02-08T11:01:51.434Z,36.22
2018-02-08T11:04:19.611Z,33.13
2018-02-08T11:06:47.283Z,33.53
2018-02-08T11:09:14.992Z,35.60
2018-02-08T11:11:42.672Z,34.72
2018-02-08T11:14:10.340Z,32.55
2018-02-08T11:16:38.027Z,33.58
2018-02-08T11:19:05.705Z,32.88
2018-02-08T11:21:33.424Z,34.10
2018-02-08T11:24:01.407Z,29.80
2018-02-08T11:26:29.288Z,31.27
2018-02-08T11:28:56.965Z,35.33
2018-02-08T11:31:24.661Z,29.12
2018-02-08T11:33:52.346Z,33.47
2018-02-08T11:36:20.031Z,30.90
2018-02-08T11:38:47.728Z,31.87
2018-02-08T11:41:15.411Z,30.58
2018-02-08T11:43:43.298Z,32.45
2018-02-08T11:46:10.982Z,31.90
2018-02-08T11:48:38.731Z,32.00
2018-02-08T11:51:06.436Z,31.33
2018-02-08T11:53:34.480Z,32.92
2018-02-08T11:56:02.200Z,24.48
2018-02-08T11:58:29.879Z,30.60
2018-02-08T12:00:58.004Z,32.33
2018-02-08T12:03:25.692Z,28.80
2018-02-08T12:05:53.664Z,23.48
2018-02-08T12:08:21.551Z,23.52
2018-02-08T12:10:49.220Z,22.45
2018-02-08T12:13:16.993Z,24.30
2018-02-08T12:15:44.675Z,23.35
2018-02-08T12:18:12.378Z,24.35
2018-02-08T12:20:40.112Z,26.50
2018-02-08T12:23:08.067Z,26.95
2018-02-08T12:25:35.748Z,27.85
2018-02-08T12:28:03.423Z,25.20
2018-02-08T12:30:31.114Z,26.42
2018-02-08T12:32:58.817Z,26.75
2018-02-08T12:35:26.684Z,27.20
2018-02-08T12:37:54.348Z,27.90
2018-02-08T12:40:22.046Z,27.48
2018-02-08T12:42:50.326Z,24.73
2018-02-08T12:45:18.141Z,26.95
2018-02-08T12:47:45.839Z,28.42
2018-02-08T12:50:13.552Z,26.80
2018-02-08T12:52:41.855Z,27.45
2018-02-08T12:55:09.827Z,25.75
2018-02-08T12:57:37.502Z,29.05
2018-02-08T13:00:05.199Z,28.27
2018-02-08T13:02:32.898Z,28.58
2018-02-08T13:05:00.609Z,28.27
2018-02-08T13:07:28.286Z,30.70
2018-02-08T13:09:55.964Z,29.35
2018-02-08T13:12:23.657Z,29.83
2018-02-08T13:14:51.343Z,30.65
2018-02-08T13:17:19.167Z,30.40
2018-02-08T13:19:46.843Z,29.52
2018-02-08T13:22:14.933Z,32.25
2018-02-08T13:24:42.899Z,30.50
2018-02-08T13:27:10.579Z,33.33
2018-02-08T13:29:38.267Z,34.38
2018-02-08T13:32:05.950Z,31.15
2018-02-08T13:34:33.675Z,30.92
2018-02-08T13:37:01.383Z,28.17
2018-02-08T13:39:31.662Z,31.12
2018-02-08T13:42:04.919Z,33.30
2018-02-08T13:44:32.619Z,30.12
2018-02-08T13:47:00.315Z,33.53
2018-02-08T13:49:28.309Z,33.33
2018-02-08T13:52:03.446Z,32.78
2018-02-08T13:54:36.842Z,30.65
2018-02-08T13:57:10.034Z,29.00
2018-02-08T13:59:40.101Z,31.73
2018-02-08T14:02:10.819Z,34.65
2018-02-08T14:04:39.373Z,33.35
2018-02-08T14:07:07.348Z,32.45
2018-02-08T14:09:35.023Z,30.48
2018-02-08T14:12:02.757Z,31.00
2018-02-08T14:14:30.523Z,31.87
2018-02-08T14:16:58.181Z,31.15
2018-02-08T14:19:25.887Z,33.70
2018-02-08T14:21:53.575Z,33.03
2018-02-08T14:24:21.503Z,31.17
2018-02-08T14:26:49.182Z,33.30
2018-02-08T14:29:17.041Z,30.40
2018-02-08T14:31:44.745Z,31.87
2018-02-08T14:34:12.442Z,33.65
2018-02-08T14:36:40.136Z,30.30
2018-02-08T14:39:07.802Z,32.65
2018-02-08T14:41:35.491Z,30.58
2018-02-08T14:44:03.164Z,33.17
2018-02-08T14:46:31.117Z,32.38
2018-02-08T14:48:58.785Z,31.15
2018-02-08T14:51:26.474Z,34.20
2018-02-08T14:53:54.662Z,41.22
2018-02-08T14:56:22.327Z,34.10
2018-02-08T14:58:51.169Z,35.78
2018-02-08T15:01:19.911Z,34.72
2018-02-08T15:03:48.184Z,31.52
2018-02-08T15:06:15.892Z,33.85
2018-02-08T15:08:43.635Z,33.00
2018-02-08T15:11:11.350Z,34.25
2018-02-08T15:13:39.018Z,31.67
2018-02-08T15:16:06.735Z,33.38
2018-02-08T15:18:34.446Z,33.92
2018-02-08T15:21:04.510Z,34.00
